Pagrindinis puslapis
METAR-TAF:

METAR-TAF

Oro uostai :

Chiang Rai, Tailandas

platuma: 19-57-08N, ilguma: 099-52-59E, Aukštis: 390 m

Dabartinis oras

Ataskaita buvo paskelbta 1 valandą ir 12 minutes, ne 21:00 UTC
Vėjas 2 kt iš Pietvakarių
Temperatūra 22°C
Drėgmė 88%
Slėgis 1012 hPa
Matomumas 10 km arba daugiau
Mažai debesys ne aukštis 3000 ft

METAR: VTCT 122100Z 22002KT 9999 FEW030 22/20 Q1012 NOSIG

Laikas: 05:12 (22:12 UTC)

Prognozė

Ataskaita buvo paskelbta 5 valandos ir 12 minutes, ne 17:00 UTC
Prognozė galioja nuo 12 metu 18 UTC su 13 metu 24 UTC
Vėjas 5 kt iš Pietų/Pietryčių
Matomumas 10 km arba daugiau
Mažai debesys ne aukštis 3500 ft
Laikinai
nuo 13 metu 09 UTC su 13 metu 13 UTC
Vėjas 15 kt iš Vakarų su gūsio iki 30 kt
Matomumas: 3000 m
Mažai debesys ne aukštis 1800 ft, Liūtiniai kamuoliniai debesys.
Su prošvaistėmis ne aukštis 2500 ft
perkūnija, lietus

TAF: VTCT 121700Z 1218/1324 16005KT 9999 FEW035 TEMPO 1309/1313 26015G30KT 3000 TSRA FEW018CB BKN025

Orai ataskaitas ir orų prognozės (METAR, TAF).

turimą stotys yra geltonos ir raudonos taškus žemėlapyje.

Perkelti pele per norėdami pamatyti stoties vardą.

Tada spustelėkite, norėdami matyti oro stebėjimo ir prognozės.

Norėdami pakeisti žemėlapį: spustelėkite ant žalios mygtukų su juodo kryžiaus žemyn,; žalią mygtuką su brūkšneliu, jei norite nutolinti; arba žalių rodyklių gretimoms žemėlapius.


METAR-TAF: